Kersti — 9HA4127 — position and weather

sailwx.info

Track history (hours):
 
Tides and Currents Weather Stations Pressure Air Temp Water Temp Dewpoint Dewpoint Depression Visibility Wind Speed Wind Dir Waves Ship Positions

Kersti

Last reported at 2018-Jun-24 13:25 UTC. Time now 2018-Jun-25 00:43 UTC.
Position N 59°19' E 017°32'.

Length 107 m; draft 5.3 m.

Type: Cargo ship. MMSI: 249145000.

Date/timePositionNaut miles runAvg speedWind from/ knotsBaromVisibWave heightAir tempDewpointWater temp
2018-Jun-24 13:25N 59°19' E 017°32'17 6.5
2018-Jun-24 10:48N 59°03' E 017°41'3 9.3
2018-Jun-24 10:30N 59°00' E 017°43'5 9.9
2018-Jun-24 10:00N 58°55' E 017°43'510.1
2018-Jun-24 09:31N 58°51' E 017°44'5 9.7
2018-Jun-24 08:59N 58°46' E 017°48'4 7.8
2018-Jun-24 08:28N 58°43' E 017°52'21110.4
2018-Jun-23 12:05N 55°31' E 015°06'111.2
2018-Jun-23 11:59N 55°31' E 015°05'511.1
2018-Jun-23 11:30N 55°28' E 014°57'611.1
2018-Jun-23 10:58N 55°25' E 014°47'511.1
2018-Jun-23 10:30N 55°23' E 014°39'511.2
2018-Jun-23 10:00N 55°18' E 014°33'611.3
2018-Jun-23 09:29N 55°14' E 014°27'611.3
2018-Jun-23 09:00N 55°10' E 014°21'611.2
2018-Jun-23 08:28N 55°05' E 014°14'510.9
2018-Jun-23 07:59N 55°01' E 014°08'6911.0
2018-Jun-23 01:45N 54°34' E 012°18'311.5
2018-Jun-23 01:30N 54°31' E 012°16'611.2
2018-Jun-23 01:00N 54°26' E 012°12'1610.7
2018-Jun-22 23:28N 54°25' E 011°44'511.1
2018-Jun-22 23:00N 54°27' E 011°36'612.6
2018-Jun-22 22:30N 54°30' E 011°26'713.2
2018-Jun-22 22:00N 54°33' E 011°16'713.3
2018-Jun-22 21:31N 54°37' E 011°07'611.7
2018-Jun-22 21:00N 54°40' E 010°58'611.1
2018-Jun-22 20:30N 54°44' E 010°52'713.6
2018-Jun-22 20:00N 54°51' E 010°52'713.4
2018-Jun-22 19:30N 54°57' E 010°57'612.7
2018-Jun-22 19:00N 55°03' E 011°02'713.6
2018-Jun-22 18:30N 55°10' E 011°03'5 9.5
2018-Jun-22 17:58N 55°15' E 011°03'5 9.0
2018-Jun-22 17:21N 55°16' E 010°54'7 9.5
2018-Jun-22 16:37N 55°09' E 010°51'110.0
2018-Jun-22 16:30N 55°08' E 010°50'510.1
2018-Jun-22 16:01N 55°04' E 010°47'4 7.8
2018-Jun-22 15:31N 55°01' E 010°41'2 4.4
2018-Jun-22 15:00N 55°03' E 010°38'1 0.0
2018-Jun-21 21:26N 55°04' E 010°37'0 0.0
2018-Jun-21 18:50N 55°04' E 010°37'0 0.0
2018-Jun-21 18:20N 55°04' E 010°37'0 0.0
2018-Jun-21 17:08N 55°04' E 010°37'0 0.0
2018-Jun-21 10:45N 55°04' E 010°37'0 0.0
2018-Jun-21 10:21N 55°04' E 010°37'0 0.0
2018-Jun-21 09:51N 55°04' E 010°37'0 0.0
2018-Jun-21 08:39N 55°04' E 010°37'0 0.0
2018-Jun-21 07:21N 55°04' E 010°37'0 0.0
2018-Jun-20 19:18N 55°04' E 010°37'0 0.0
2018-Jun-20 18:06N 55°04' E 010°37'0 0.0
2018-Jun-20 17:54N 55°04' E 010°37'0 0.0
2018-Jun-20 09:54N 55°04' E 010°37'0 1.3
2018-Jun-20 09:30N 55°03' E 010°38'2 4.8
2018-Jun-20 09:00N 55°02' E 010°40'4 8.0
2018-Jun-20 08:30N 55°04' E 010°46'510.4
2018-Jun-20 08:00N 55°08' E 010°50'510.2
2018-Jun-20 07:30N 55°13' E 010°52'8 6.8
2018-Jun-20 06:19N 55°15' E 011°05'2 6.7
2018-Jun-20 06:00N 55°13' E 011°06'5 8.7
2018-Jun-20 05:28N 55°09' E 011°04'4 8.2
2018-Jun-20 05:00N 55°05' E 011°03'4 8.4
2018-Jun-20 04:30N 55°01' E 011°02'5 9.1
2018-Jun-20 04:00N 54°57' E 010°58'4 7.9
2018-Jun-20 03:30N 54°54' E 010°54'4 8.2
2018-Jun-20 03:00N 54°50' E 010°52'510.4
2018-Jun-20 02:30N 54°44' E 010°53'5 9.7
2018-Jun-20 02:00N 54°40' E 010°58'510.1
2018-Jun-20 01:30N 54°38' E 011°05'4 8.7
2018-Jun-20 01:00N 54°36' E 011°12'4 8.5
2018-Jun-20 00:30N 54°34' E 011°19'4 8.4
2018-Jun-20 00:00N 54°32' E 011°25'4 8.7
2018-Jun-19 23:30N 54°30' E 011°32'5 9.3
2018-Jun-19 23:00N 54°28' E 011°39'5 9.3
2018-Jun-19 22:30N 54°27' E 011°47'4 8.9
2018-Jun-19 22:00N 54°27' E 011°54'5 9.1
2018-Jun-19 21:30N 54°27' E 012°02'42 9.0
2018-Jun-19 16:47N 55°03' E 012°40'310.8
2018-Jun-19 16:30N 55°06' E 012°39'510.5
2018-Jun-19 16:00N 55°11' E 012°39'510.3
2018-Jun-19 15:30N 55°17' E 012°38'611.5
2018-Jun-19 15:00N 55°22' E 012°34'611.0
2018-Jun-19 14:30N 55°26' E 012°28'611.5
2018-Jun-19 14:00N 55°27' E 012°18'3 6.5
2018-Jun-19 13:30N 55°27' E 012°12'0 0.0
2018-Jun-19 13:00N 55°27' E 012°12'0 0.0
2018-Jun-19 12:30N 55°27' E 012°12'0 0.0
2018-Jun-19 11:57N 55°27' E 012°12'0 0.0
2018-Jun-19 11:30N 55°27' E 012°12'0 0.0
2018-Jun-19 11:00N 55°27' E 012°12'0 0.0
2018-Jun-19 10:30N 55°27' E 012°12'0 0.0
2018-Jun-19 09:57N 55°27' E 012°12'0 0.0
2018-Jun-19 09:30N 55°27' E 012°12'0 0.0
2018-Jun-19 09:00N 55°27' E 012°12'0 0.0
2018-Jun-19 08:30N 55°27' E 012°12'0 0.0
2018-Jun-19 08:00N 55°27' E 012°12'0 0.0
2018-Jun-19 07:24N 55°27' E 012°12'0 0.0
2018-Jun-19 07:00N 55°27' E 012°12'0 0.0
2018-Jun-19 06:27N 55°27' E 012°12'0 0.0
2018-Jun-19 06:00N 55°27' E 012°12'0 0.0
2018-Jun-19 05:30N 55°27' E 012°12'0 0.0
2018-Jun-19 05:00N 55°27' E 012°12'0 0.0
2018-Jun-19 04:21N 55°27' E 012°12'0 0.0
2018-Jun-19 03:57N 55°27' E 012°12'0 0.0
2018-Jun-19 03:27N 55°27' E 012°12'0 0.0
2018-Jun-19 03:00N 55°27' E 012°12'0 0.0
2018-Jun-19 02:30N 55°27' E 012°12'0 0.0
2018-Jun-19 01:57N 55°27' E 012°12'0 0.0
2018-Jun-19 01:30N 55°27' E 012°12'0 0.0
2018-Jun-19 01:00N 55°27' E 012°12'0 0.0
2018-Jun-19 00:30N 55°27' E 012°12'0 0.0
2018-Jun-19 00:00N 55°27' E 012°12'0 0.0
2018-Jun-18 23:30N 55°27' E 012°12'0 0.0
2018-Jun-18 23:00N 55°27' E 012°12'0 0.0
2018-Jun-18 22:30N 55°27' E 012°12'0 0.0
2018-Jun-18 22:00N 55°27' E 012°12'0 0.0
2018-Jun-18 21:27N 55°27' E 012°12'0 0.0
2018-Jun-18 20:57N 55°27' E 012°12'0 0.0
2018-Jun-18 20:27N 55°27' E 012°12'0 0.0
2018-Jun-18 20:00N 55°27' E 012°12'0 0.0
2018-Jun-18 19:30N 55°27' E 012°12'0 0.0
2018-Jun-18 18:54N 55°27' E 012°12'0 0.0
2018-Jun-18 18:30N 55°27' E 012°12'0 0.0
2018-Jun-18 18:00N 55°27' E 012°12'0 0.0
2018-Jun-18 17:30N 55°27' E 012°12'0 0.0
2018-Jun-18 16:54N 55°27' E 012°12'0 0.0
2018-Jun-18 16:30N 55°27' E 012°12'0 0.0
2018-Jun-18 15:57N 55°27' E 012°12'0 0.0
2018-Jun-18 15:30N 55°27' E 012°12'0 0.0
2018-Jun-18 14:57N 55°27' E 012°12'0 0.0
2018-Jun-18 14:30N 55°27' E 012°12'0 0.0
2018-Jun-18 14:00N 55°27' E 012°12'0 0.0
2018-Jun-18 13:30N 55°27' E 012°12'0 0.0
2018-Jun-18 13:00N 55°27' E 012°12'0 0.0
2018-Jun-18 12:30N 55°27' E 012°12'0 0.0
2018-Jun-18 11:51N 55°27' E 012°12'0 0.0
2018-Jun-18 11:15N 55°27' E 012°12'0 0.0
2018-Jun-18 11:00N 55°27' E 012°12'0 0.0
2018-Jun-18 10:30N 55°27' E 012°12'0 0.0
2018-Jun-18 10:00N 55°27' E 012°12'0 0.0
2018-Jun-18 09:30N 55°27' E 012°12'0 0.0
2018-Jun-18 08:54N 55°27' E 012°12'0 0.0
2018-Jun-18 08:18N 55°27' E 012°12'0 0.0
2018-Jun-18 08:00N 55°27' E 012°12'0 0.0
2018-Jun-18 07:27N 55°27' E 012°12'0 0.0
2018-Jun-18 07:00N 55°27' E 012°12'0 0.0
2018-Jun-18 06:12N 55°27' E 012°12'0 0.0
2018-Jun-18 05:54N 55°27' E 012°12'0 0.0
2018-Jun-18 05:30N 55°27' E 012°12'0 0.0
2018-Jun-18 04:54N 55°27' E 012°12'0 0.0
2018-Jun-18 04:27N 55°27' E 012°12'0 0.0
2018-Jun-18 03:54N 55°27' E 012°12'0 0.0
2018-Jun-18 03:30N 55°27' E 012°12'0 0.0
2018-Jun-18 02:58N 55°27' E 012°12'1 1.9
2018-Jun-18 02:30N 55°28' E 012°14'4 7.4
2018-Jun-18 02:00N 55°28' E 012°20'5 9.8
2018-Jun-18 01:31N 55°29' E 012°29'5 9.6
2018-Jun-18 01:01N 55°30' E 012°37'5 9.0
2018-Jun-18 00:30N 55°34' E 012°42'510.8
2018-Jun-18 00:01N 55°39' E 012°41'510.5
2018-Jun-17 23:31N 55°44' E 012°41'510.4
2018-Jun-17 23:00N 55°49' E 012°39'510.0
2018-Jun-17 22:31N 55°54' E 012°38'5 9.7
2018-Jun-17 22:01N 55°59' E 012°37'4 9.0
2018-Jun-17 21:31N 56°03' E 012°38'81 9.8
2018-Jun-17 13:14N 57°16' E 011°32'210.3
2018-Jun-17 13:00N 57°19' E 011°30'510.2
2018-Jun-17 12:30N 57°23' E 011°25'510.4
2018-Jun-17 12:01N 57°28' E 011°24'510.1
2018-Jun-17 11:30N 57°31' E 011°17'5 9.9
2018-Jun-17 11:00N 57°34' E 011°10'5 9.9
2018-Jun-17 10:28N 57°38' E 011°02'330 9.9
2018-Jun-16 01:19N 53°28' E 004°43'3 9.5
2018-Jun-16 01:01N 53°25' E 004°41'5 9.4
2018-Jun-16 00:30N 53°21' E 004°38'6 9.3
2018-Jun-15 23:50N 53°15' E 004°34'3 9.4
2018-Jun-15 23:31N 53°12' E 004°31'7 9.4
2018-Jun-15 22:47N 53°06' E 004°27'3 9.5
2018-Jun-15 22:25N 53°03' E 004°24'7 9.4
2018-Jun-15 21:41N 52°57' E 004°19'2 9.5
2018-Jun-15 21:31N 52°55' E 004°18'5 9.6
2018-Jun-15 20:59N 52°51' E 004°15'5 9.8
2018-Jun-15 20:30N 52°47' E 004°09'510.2
2018-Jun-15 20:00N 52°43' E 004°04'510.6
2018-Jun-15 19:30N 52°40' E 003°58'510.9
2018-Jun-15 19:01N 52°36' E 003°52'611.1
2018-Jun-15 18:31N 52°32' E 003°45'611.2
2018-Jun-15 18:01N 52°28' E 003°39'611.5
2018-Jun-15 17:31N 52°23' E 003°33'611.6
2018-Jun-15 17:00N 52°19' E 003°26'611.8
2018-Jun-15 16:30N 52°15' E 003°19'612.0
2018-Jun-15 16:01N 52°11' E 003°12'612.3
2018-Jun-15 15:31N 52°06' E 003°06'612.5
2018-Jun-15 15:00N 52°01' E 002°59'612.5
2018-Jun-15 14:30N 51°57' E 002°52'612.4
2018-Jun-15 14:00N 51°52' E 002°45'612.2
2018-Jun-15 13:30N 51°47' E 002°39'611.9
2018-Jun-15 13:01N 51°43' E 002°33'611.6
2018-Jun-15 12:30N 51°38' E 002°27'611.1
2018-Jun-15 12:00N 51°34' E 002°21'510.4
2018-Jun-15 11:31N 51°30' E 002°16'5 9.6
2018-Jun-15 11:00N 51°26' E 002°13'5 9.4
2018-Jun-15 10:31N 51°22' E 002°10'4 8.8
2018-Jun-15 10:00N 51°18' E 002°07'4 7.8
2018-Jun-15 09:31N 51°14' E 002°04'4 7.6
2018-Jun-15 09:00N 51°12' E 001°58'4 7.4
2018-Jun-15 08:31N 51°10' E 001°53'4 7.2
2018-Jun-15 08:01N 51°08' E 001°49'4 7.2
2018-Jun-15 07:31N 51°05' E 001°45'4 7.4
2018-Jun-15 07:01N 51°03' E 001°42'4 7.4
2018-Jun-15 06:31N 50°60' E 001°38'4 8.3
2018-Jun-15 06:00N 50°57' E 001°33'5 9.1
2018-Jun-15 05:29N 50°53' E 001°28'6 9.9
2018-Jun-15 04:53N 50°47' E 001°25'4 9.6
2018-Jun-15 04:31N 50°44' E 001°23'5 9.6
2018-Jun-15 04:00N 50°40' E 001°19'5 9.9
2018-Jun-15 03:30N 50°37' E 001°13'510.2
2018-Jun-15 03:00N 50°33' E 001°07'3310.0
2018-Jun-14 23:44N 50°22' E 000°19'211.0
2018-Jun-14 23:31N 50°21' E 000°15'611.4
2018-Jun-14 23:01N 50°20' E 000°06'612.0
2018-Jun-14 22:30N 50°18' W 000°03'612.5
2018-Jun-14 22:01N 50°16' W 000°12'713.0
2018-Jun-14 21:30N 50°15' W 000°22'713.5
2018-Jun-14 21:01N 50°13' W 000°32'713.7
2018-Jun-14 20:31N 50°11' W 000°42'713.9
2018-Jun-14 20:00N 50°09' W 000°53'713.9
2018-Jun-14 19:30N 50°07' W 001°03'713.9
2018-Jun-14 19:00N 50°05' W 001°14'713.2
2018-Jun-14 18:31N 50°03' W 001°23'612.1
2018-Jun-14 18:01N 50°02' W 001°33'611.5
2018-Jun-14 17:30N 50°00' W 001°41'510.3
2018-Jun-14 17:00N 49°59' W 001°49'5 9.3
2018-Jun-14 16:30N 49°58' W 001°56'4 8.5
2018-Jun-14 16:00N 49°57' W 002°03'4 7.8
2018-Jun-14 15:30N 49°56' W 002°08'4 7.1
2018-Jun-14 15:00N 49°55' W 002°14'3 6.6
2018-Jun-14 14:30N 49°54' W 002°18'4 6.6
2018-Jun-14 13:59N 49°53' W 002°24'3 6.6
2018-Jun-14 13:27N 49°52' W 002°29'  
Track history (hours):
 
Tides and Currents Weather Stations Pressure Air Temp Water Temp Dewpoint Dewpoint Depression Visibility Wind Speed Wind Dir Waves Ship Positions

Kersti

Last reported at 2018-Jun-24 13:25 UTC. Time now 2018-Jun-25 00:43 UTC.
Position N 59°19' E 017°32'.

Length 107 m; draft 5.3 m.

Type: Cargo ship. MMSI: 249145000.

Date/timePositionNaut miles runAvg speedWind from/ knotsBaromVisibWave heightAir tempDewpointWater temp
2018-Jun-24 13:25N 59°19' E 017°32'17 6.5
2018-Jun-24 10:48N 59°03' E 017°41'3 9.3
2018-Jun-24 10:30N 59°00' E 017°43'5 9.9
2018-Jun-24 10:00N 58°55' E 017°43'510.1
2018-Jun-24 09:31N 58°51' E 017°44'5 9.7
2018-Jun-24 08:59N 58°46' E 017°48'4 7.8
2018-Jun-24 08:28N 58°43' E 017°52'21110.4
2018-Jun-23 12:05N 55°31' E 015°06'111.2
2018-Jun-23 11:59N 55°31' E 015°05'511.1
2018-Jun-23 11:30N 55°28' E 014°57'611.1
2018-Jun-23 10:58N 55°25' E 014°47'511.1
2018-Jun-23 10:30N 55°23' E 014°39'511.2
2018-Jun-23 10:00N 55°18' E 014°33'611.3
2018-Jun-23 09:29N 55°14' E 014°27'611.3
2018-Jun-23 09:00N 55°10' E 014°21'611.2
2018-Jun-23 08:28N 55°05' E 014°14'510.9
2018-Jun-23 07:59N 55°01' E 014°08'6911.0
2018-Jun-23 01:45N 54°34' E 012°18'311.5
2018-Jun-23 01:30N 54°31' E 012°16'611.2
2018-Jun-23 01:00N 54°26' E 012°12'1610.7
2018-Jun-22 23:28N 54°25' E 011°44'511.1
2018-Jun-22 23:00N 54°27' E 011°36'612.6
2018-Jun-22 22:30N 54°30' E 011°26'713.2
2018-Jun-22 22:00N 54°33' E 011°16'713.3
2018-Jun-22 21:31N 54°37' E 011°07'611.7
2018-Jun-22 21:00N 54°40' E 010°58'611.1
2018-Jun-22 20:30N 54°44' E 010°52'713.6
2018-Jun-22 20:00N 54°51' E 010°52'713.4
2018-Jun-22 19:30N 54°57' E 010°57'612.7
2018-Jun-22 19:00N 55°03' E 011°02'713.6
2018-Jun-22 18:30N 55°10' E 011°03'5 9.5
2018-Jun-22 17:58N 55°15' E 011°03'5 9.0
2018-Jun-22 17:21N 55°16' E 010°54'7 9.5
2018-Jun-22 16:37N 55°09' E 010°51'110.0
2018-Jun-22 16:30N 55°08' E 010°50'510.1
2018-Jun-22 16:01N 55°04' E 010°47'4 7.8
2018-Jun-22 15:31N 55°01' E 010°41'2 4.4
2018-Jun-22 15:00N 55°03' E 010°38'1 0.0
2018-Jun-21 21:26N 55°04' E 010°37'0 0.0
2018-Jun-21 18:50N 55°04' E 010°37'0 0.0
2018-Jun-21 18:20N 55°04' E 010°37'0 0.0
2018-Jun-21 17:08N 55°04' E 010°37'0 0.0
2018-Jun-21 10:45N 55°04' E 010°37'0 0.0
2018-Jun-21 10:21N 55°04' E 010°37'0 0.0
2018-Jun-21 09:51N 55°04' E 010°37'0 0.0
2018-Jun-21 08:39N 55°04' E 010°37'0 0.0
2018-Jun-21 07:21N 55°04' E 010°37'0 0.0
2018-Jun-20 19:18N 55°04' E 010°37'0 0.0
2018-Jun-20 18:06N 55°04' E 010°37'0 0.0
2018-Jun-20 17:54N 55°04' E 010°37'0 0.0
2018-Jun-20 09:54N 55°04' E 010°37'0 1.3
2018-Jun-20 09:30N 55°03' E 010°38'2 4.8
2018-Jun-20 09:00N 55°02' E 010°40'4 8.0
2018-Jun-20 08:30N 55°04' E 010°46'510.4
2018-Jun-20 08:00N 55°08' E 010°50'510.2
2018-Jun-20 07:30N 55°13' E 010°52'8 6.8
2018-Jun-20 06:19N 55°15' E 011°05'2 6.7
2018-Jun-20 06:00N 55°13' E 011°06'5 8.7
2018-Jun-20 05:28N 55°09' E 011°04'4 8.2
2018-Jun-20 05:00N 55°05' E 011°03'4 8.4
2018-Jun-20 04:30N 55°01' E 011°02'5 9.1
2018-Jun-20 04:00N 54°57' E 010°58'4 7.9
2018-Jun-20 03:30N 54°54' E 010°54'4 8.2
2018-Jun-20 03:00N 54°50' E 010°52'510.4
2018-Jun-20 02:30N 54°44' E 010°53'5 9.7
2018-Jun-20 02:00N 54°40' E 010°58'510.1
2018-Jun-20 01:30N 54°38' E 011°05'4 8.7
2018-Jun-20 01:00N 54°36' E 011°12'4 8.5
2018-Jun-20 00:30N 54°34' E 011°19'4 8.4
2018-Jun-20 00:00N 54°32' E 011°25'4 8.7
2018-Jun-19 23:30N 54°30' E 011°32'5 9.3
2018-Jun-19 23:00N 54°28' E 011°39'5 9.3
2018-Jun-19 22:30N 54°27' E 011°47'4 8.9
2018-Jun-19 22:00N 54°27' E 011°54'5 9.1
2018-Jun-19 21:30N 54°27' E 012°02'42 9.0
2018-Jun-19 16:47N 55°03' E 012°40'310.8
2018-Jun-19 16:30N 55°06' E 012°39'510.5
2018-Jun-19 16:00N 55°11' E 012°39'510.3
2018-Jun-19 15:30N 55°17' E 012°38'611.5
2018-Jun-19 15:00N 55°22' E 012°34'611.0
2018-Jun-19 14:30N 55°26' E 012°28'611.5
2018-Jun-19 14:00N 55°27' E 012°18'3 6.5
2018-Jun-19 13:30N 55°27' E 012°12'0 0.0
2018-Jun-19 13:00N 55°27' E 012°12'0 0.0
2018-Jun-19 12:30N 55°27' E 012°12'0 0.0
2018-Jun-19 11:57N 55°27' E 012°12'0 0.0
2018-Jun-19 11:30N 55°27' E 012°12'0 0.0
2018-Jun-19 11:00N 55°27' E 012°12'0 0.0
2018-Jun-19 10:30N 55°27' E 012°12'0 0.0
2018-Jun-19 09:57N 55°27' E 012°12'0 0.0
2018-Jun-19 09:30N 55°27' E 012°12'0 0.0
2018-Jun-19 09:00N 55°27' E 012°12'0 0.0
2018-Jun-19 08:30N 55°27' E 012°12'0 0.0
2018-Jun-19 08:00N 55°27' E 012°12'0 0.0
2018-Jun-19 07:24N 55°27' E 012°12'0 0.0
2018-Jun-19 07:00N 55°27' E 012°12'0 0.0
2018-Jun-19 06:27N 55°27' E 012°12'0 0.0
2018-Jun-19 06:00N 55°27' E 012°12'0 0.0
2018-Jun-19 05:30N 55°27' E 012°12'0 0.0
2018-Jun-19 05:00N 55°27' E 012°12'0 0.0
2018-Jun-19 04:21N 55°27' E 012°12'0 0.0
2018-Jun-19 03:57N 55°27' E 012°12'0 0.0
2018-Jun-19 03:27N 55°27' E 012°12'0 0.0
2018-Jun-19 03:00N 55°27' E 012°12'0 0.0
2018-Jun-19 02:30N 55°27' E 012°12'0 0.0
2018-Jun-19 01:57N 55°27' E 012°12'0 0.0
2018-Jun-19 01:30N 55°27' E 012°12'0 0.0
2018-Jun-19 01:00N 55°27' E 012°12'0 0.0
2018-Jun-19 00:30N 55°27' E 012°12'0 0.0
2018-Jun-19 00:00N 55°27' E 012°12'0 0.0
2018-Jun-18 23:30N 55°27' E 012°12'0 0.0
2018-Jun-18 23:00N 55°27' E 012°12'0 0.0
2018-Jun-18 22:30N 55°27' E 012°12'0 0.0
2018-Jun-18 22:00N 55°27' E 012°12'0 0.0
2018-Jun-18 21:27N 55°27' E 012°12'0 0.0
2018-Jun-18 20:57N 55°27' E 012°12'0 0.0
2018-Jun-18 20:27N 55°27' E 012°12'0 0.0
2018-Jun-18 20:00N 55°27' E 012°12'0 0.0
2018-Jun-18 19:30N 55°27' E 012°12'0 0.0
2018-Jun-18 18:54N 55°27' E 012°12'0 0.0
2018-Jun-18 18:30N 55°27' E 012°12'0 0.0
2018-Jun-18 18:00N 55°27' E 012°12'0 0.0
2018-Jun-18 17:30N 55°27' E 012°12'0 0.0
2018-Jun-18 16:54N 55°27' E 012°12'0 0.0
2018-Jun-18 16:30N 55°27' E 012°12'0 0.0
2018-Jun-18 15:57N 55°27' E 012°12'0 0.0
2018-Jun-18 15:30N 55°27' E 012°12'0 0.0
2018-Jun-18 14:57N 55°27' E 012°12'0 0.0
2018-Jun-18 14:30N 55°27' E 012°12'0 0.0
2018-Jun-18 14:00N 55°27' E 012°12'0 0.0
2018-Jun-18 13:30N 55°27' E 012°12'0 0.0
2018-Jun-18 13:00N 55°27' E 012°12'0 0.0
2018-Jun-18 12:30N 55°27' E 012°12'0 0.0
2018-Jun-18 11:51N 55°27' E 012°12'0 0.0
2018-Jun-18 11:15N 55°27' E 012°12'0 0.0
2018-Jun-18 11:00N 55°27' E 012°12'0 0.0
2018-Jun-18 10:30N 55°27' E 012°12'0 0.0
2018-Jun-18 10:00N 55°27' E 012°12'0 0.0
2018-Jun-18 09:30N 55°27' E 012°12'0 0.0
2018-Jun-18 08:54N 55°27' E 012°12'0 0.0
2018-Jun-18 08:18N 55°27' E 012°12'0 0.0
2018-Jun-18 08:00N 55°27' E 012°12'0 0.0
2018-Jun-18 07:27N 55°27' E 012°12'0 0.0
2018-Jun-18 07:00N 55°27' E 012°12'0 0.0
2018-Jun-18 06:12N 55°27' E 012°12'0 0.0
2018-Jun-18 05:54N 55°27' E 012°12'0 0.0
2018-Jun-18 05:30N 55°27' E 012°12'0 0.0
2018-Jun-18 04:54N 55°27' E 012°12'0 0.0
2018-Jun-18 04:27N 55°27' E 012°12'0 0.0
2018-Jun-18 03:54N 55°27' E 012°12'0 0.0
2018-Jun-18 03:30N 55°27' E 012°12'0 0.0
2018-Jun-18 02:58N 55°27' E 012°12'1 1.9
2018-Jun-18 02:30N 55°28' E 012°14'4 7.4
2018-Jun-18 02:00N 55°28' E 012°20'5 9.8
2018-Jun-18 01:31N 55°29' E 012°29'5 9.6
2018-Jun-18 01:01N 55°30' E 012°37'5 9.0
2018-Jun-18 00:30N 55°34' E 012°42'510.8
2018-Jun-18 00:01N 55°39' E 012°41'510.5
2018-Jun-17 23:31N 55°44' E 012°41'510.4
2018-Jun-17 23:00N 55°49' E 012°39'510.0
2018-Jun-17 22:31N 55°54' E 012°38'5 9.7
2018-Jun-17 22:01N 55°59' E 012°37'4 9.0
2018-Jun-17 21:31N 56°03' E 012°38'81 9.8
2018-Jun-17 13:14N 57°16' E 011°32'210.3
2018-Jun-17 13:00N 57°19' E 011°30'510.2
2018-Jun-17 12:30N 57°23' E 011°25'510.4
2018-Jun-17 12:01N 57°28' E 011°24'510.1
2018-Jun-17 11:30N 57°31' E 011°17'5 9.9
2018-Jun-17 11:00N 57°34' E 011°10'5 9.9
2018-Jun-17 10:28N 57°38' E 011°02'330 9.9
2018-Jun-16 01:19N 53°28' E 004°43'3 9.5
2018-Jun-16 01:01N 53°25' E 004°41'5 9.4
2018-Jun-16 00:30N 53°21' E 004°38'6 9.3
2018-Jun-15 23:50N 53°15' E 004°34'3 9.4
2018-Jun-15 23:31N 53°12' E 004°31'7 9.4
2018-Jun-15 22:47N 53°06' E 004°27'3 9.5
2018-Jun-15 22:25N 53°03' E 004°24'7 9.4
2018-Jun-15 21:41N 52°57' E 004°19'2 9.5
2018-Jun-15 21:31N 52°55' E 004°18'5 9.6
2018-Jun-15 20:59N 52°51' E 004°15'5 9.8
2018-Jun-15 20:30N 52°47' E 004°09'510.2
2018-Jun-15 20:00N 52°43' E 004°04'510.6
2018-Jun-15 19:30N 52°40' E 003°58'510.9
2018-Jun-15 19:01N 52°36' E 003°52'611.1
2018-Jun-15 18:31N 52°32' E 003°45'611.2
2018-Jun-15 18:01N 52°28' E 003°39'611.5
2018-Jun-15 17:31N 52°23' E 003°33'611.6
2018-Jun-15 17:00N 52°19' E 003°26'611.8
2018-Jun-15 16:30N 52°15' E 003°19'612.0
2018-Jun-15 16:01N 52°11' E 003°12'612.3
2018-Jun-15 15:31N 52°06' E 003°06'612.5
2018-Jun-15 15:00N 52°01' E 002°59'612.5
2018-Jun-15 14:30N 51°57' E 002°52'612.4
2018-Jun-15 14:00N 51°52' E 002°45'612.2
2018-Jun-15 13:30N 51°47' E 002°39'611.9
2018-Jun-15 13:01N 51°43' E 002°33'611.6
2018-Jun-15 12:30N 51°38' E 002°27'611.1
2018-Jun-15 12:00N 51°34' E 002°21'510.4
2018-Jun-15 11:31N 51°30' E 002°16'5 9.6
2018-Jun-15 11:00N 51°26' E 002°13'5 9.4
2018-Jun-15 10:31N 51°22' E 002°10'4 8.8
2018-Jun-15 10:00N 51°18' E 002°07'4 7.8
2018-Jun-15 09:31N 51°14' E 002°04'4 7.6
2018-Jun-15 09:00N 51°12' E 001°58'4 7.4
2018-Jun-15 08:31N 51°10' E 001°53'4 7.2
2018-Jun-15 08:01N 51°08' E 001°49'4 7.2
2018-Jun-15 07:31N 51°05' E 001°45'4 7.4
2018-Jun-15 07:01N 51°03' E 001°42'4 7.4
2018-Jun-15 06:31N 50°60' E 001°38'4 8.3
2018-Jun-15 06:00N 50°57' E 001°33'5 9.1
2018-Jun-15 05:29N 50°53' E 001°28'6 9.9
2018-Jun-15 04:53N 50°47' E 001°25'4 9.6
2018-Jun-15 04:31N 50°44' E 001°23'5 9.6
2018-Jun-15 04:00N 50°40' E 001°19'5 9.9
2018-Jun-15 03:30N 50°37' E 001°13'510.2
2018-Jun-15 03:00N 50°33' E 001°07'3310.0
2018-Jun-14 23:44N 50°22' E 000°19'211.0
2018-Jun-14 23:31N 50°21' E 000°15'611.4
2018-Jun-14 23:01N 50°20' E 000°06'612.0
2018-Jun-14 22:30N 50°18' W 000°03'612.5
2018-Jun-14 22:01N 50°16' W 000°12'713.0
2018-Jun-14 21:30N 50°15' W 000°22'713.5
2018-Jun-14 21:01N 50°13' W 000°32'713.7
2018-Jun-14 20:31N 50°11' W 000°42'713.9
2018-Jun-14 20:00N 50°09' W 000°53'713.9
2018-Jun-14 19:30N 50°07' W 001°03'713.9
2018-Jun-14 19:00N 50°05' W 001°14'713.2
2018-Jun-14 18:31N 50°03' W 001°23'612.1
2018-Jun-14 18:01N 50°02' W 001°33'611.5
2018-Jun-14 17:30N 50°00' W 001°41'510.3
2018-Jun-14 17:00N 49°59' W 001°49'5 9.3
2018-Jun-14 16:30N 49°58' W 001°56'4 8.5
2018-Jun-14 16:00N 49°57' W 002°03'4 7.8
2018-Jun-14 15:30N 49°56' W 002°08'4 7.1
2018-Jun-14 15:00N 49°55' W 002°14'3 6.6
2018-Jun-14 14:30N 49°54' W 002°18'4 6.6
2018-Jun-14 13:59N 49°53' W 002°24'3 6.6
2018-Jun-14 13:27N 49°52' W 002°29'  

Dump ship's entire track history